sensor_id;sensor_type;location;lat;lon;timestamp;P1;durP1;ratioP1;P2;durP2;ratioP2
75446;SDS011;64024;55.820;37.574;2023-08-06T00:02:20;5.95;;;5.25;;
75446;SDS011;64024;55.820;37.574;2023-08-06T00:04:46;7.53;;;5.82;;
75446;SDS011;64024;55.820;37.574;2023-08-06T00:07:12;7.45;;;5.82;;
75446;SDS011;64024;55.820;37.574;2023-08-06T00:09:37;7.30;;;5.97;;
75446;SDS011;64024;55.820;37.574;2023-08-06T00:12:03;5.85;;;5.13;;
75446;SDS011;64024;55.820;37.574;2023-08-06T00:14:29;9.20;;;5.38;;
75446;SDS011;64024;55.820;37.574;2023-08-06T00:16:59;6.90;;;4.82;;
75446;SDS011;64024;55.820;37.574;2023-08-06T00:19:25;5.68;;;5.07;;
75446;SDS011;64024;55.820;37.574;2023-08-06T00:21:50;7.38;;;5.55;;
75446;SDS011;64024;55.820;37.574;2023-08-06T00:24:16;6.25;;;5.25;;
75446;SDS011;64024;55.820;37.574;2023-08-06T00:26:41;5.88;;;5.32;;
75446;SDS011;64024;55.820;37.574;2023-08-06T00:29:07;8.13;;;6.22;;
75446;SDS011;64024;55.820;37.574;2023-08-06T00:31:33;5.72;;;5.22;;
75446;SDS011;64024;55.820;37.574;2023-08-06T00:33:58;6.05;;;5.20;;
75446;SDS011;64024;55.820;37.574;2023-08-06T00:36:24;5.45;;;4.95;;
75446;SDS011;64024;55.820;37.574;2023-08-06T00:38:49;5.78;;;5.15;;
75446;SDS011;64024;55.820;37.574;2023-08-06T00:41:15;6.13;;;5.00;;
75446;SDS011;64024;55.820;37.574;2023-08-06T00:43:40;6.38;;;4.78;;
75446;SDS011;64024;55.820;37.574;2023-08-06T00:46:06;5.40;;;4.90;;
75446;SDS011;64024;55.820;37.574;2023-08-06T00:48:32;5.75;;;5.15;;
75446;SDS011;64024;55.820;37.574;2023-08-06T00:50:57;6.28;;;5.03;;
75446;SDS011;64024;55.820;37.574;2023-08-06T00:53:23;6.97;;;5.50;;
75446;SDS011;64024;55.820;37.574;2023-08-06T00:55:49;6.32;;;5.72;;
75446;SDS011;64024;55.820;37.574;2023-08-06T00:58:16;6.03;;;5.43;;
75446;SDS011;64024;55.820;37.574;2023-08-06T01:00:42;6.82;;;6.07;;
75446;SDS011;64024;55.820;37.574;2023-08-06T01:03:07;7.15;;;5.65;;
75446;SDS011;64024;55.820;37.574;2023-08-06T01:05:33;6.20;;;5.60;;
75446;SDS011;64024;55.820;37.574;2023-08-06T01:16:11;6.75;;;5.35;;
75446;SDS011;64024;55.820;37.574;2023-08-06T01:18:38;6.30;;;5.40;;
75446;SDS011;64024;55.820;37.574;2023-08-06T01:21:04;6.70;;;5.88;;
75446;SDS011;64024;55.820;37.574;2023-08-06T01:23:32;6.20;;;5.35;;
75446;SDS011;64024;55.820;37.574;2023-08-06T01:26:07;6.32;;;5.68;;
75446;SDS011;64024;55.820;37.574;2023-08-06T01:31:26;6.68;;;6.05;;
75446;SDS011;64024;55.820;37.574;2023-08-06T01:33:55;8.43;;;6.30;;
75446;SDS011;64024;55.820;37.574;2023-08-06T01:36:23;8.00;;;6.90;;
75446;SDS011;64024;55.820;37.574;2023-08-06T01:38:50;8.20;;;7.38;;
75446;SDS011;64024;55.820;37.574;2023-08-06T01:41:17;7.82;;;6.95;;
75446;SDS011;64024;55.820;37.574;2023-08-06T01:43:43;7.97;;;6.43;;
75446;SDS011;64024;55.820;37.574;2023-08-06T01:46:08;6.82;;;6.05;;
75446;SDS011;64024;55.820;37.574;2023-08-06T01:48:34;7.45;;;6.78;;
75446;SDS011;64024;55.820;37.574;2023-08-06T01:50:59;7.43;;;6.72;;
75446;SDS011;64024;55.820;37.574;2023-08-06T01:53:25;7.95;;;7.15;;
75446;SDS011;64024;55.820;37.574;2023-08-06T01:55:50;6.93;;;6.13;;
75446;SDS011;64024;55.820;37.574;2023-08-06T01:58:16;6.25;;;5.65;;
75446;SDS011;64024;55.820;37.574;2023-08-06T02:00:42;6.70;;;5.95;;
75446;SDS011;64024;55.820;37.574;2023-08-06T02:03:09;7.53;;;6.63;;
75446;SDS011;64024;55.820;37.574;2023-08-06T02:05:35;7.10;;;6.40;;
75446;SDS011;64024;55.820;37.574;2023-08-06T02:08:01;6.43;;;5.82;;
75446;SDS011;64024;55.820;37.574;2023-08-06T02:10:29;6.32;;;5.72;;
75446;SDS011;64024;55.820;37.574;2023-08-06T02:12:54;6.47;;;5.75;;
75446;SDS011;64024;55.820;37.574;2023-08-06T02:15:20;6.40;;;5.43;;
75446;SDS011;64024;55.820;37.574;2023-08-06T02:17:45;6.93;;;5.50;;
75446;SDS011;64024;55.820;37.574;2023-08-06T02:20:11;6.13;;;5.53;;
75446;SDS011;64024;55.820;37.574;2023-08-06T02:22:36;6.88;;;5.75;;
75446;SDS011;64024;55.820;37.574;2023-08-06T02:25:04;7.22;;;6.00;;
75446;SDS011;64024;55.820;37.574;2023-08-06T02:27:30;6.38;;;5.63;;
75446;SDS011;64024;55.820;37.574;2023-08-06T02:29:58;6.35;;;5.30;;
75446;SDS011;64024;55.820;37.574;2023-08-06T02:32:24;7.47;;;5.70;;
75446;SDS011;64024;55.820;37.574;2023-08-06T02:34:54;7.35;;;5.88;;
75446;SDS011;64024;55.820;37.574;2023-08-06T02:37:20;8.45;;;5.05;;
75446;SDS011;64024;55.820;37.574;2023-08-06T02:39:55;5.75;;;5.15;;
75446;SDS011;64024;55.820;37.574;2023-08-06T02:42:20;7.90;;;5.70;;
75446;SDS011;64024;55.820;37.574;2023-08-06T02:44:46;6.70;;;6.10;;
75446;SDS011;64024;55.820;37.574;2023-08-06T02:47:11;5.90;;;5.30;;
75446;SDS011;64024;55.820;37.574;2023-08-06T02:49:37;8.23;;;6.38;;
75446;SDS011;64024;55.820;37.574;2023-08-06T02:52:06;6.88;;;5.95;;
75446;SDS011;64024;55.820;37.574;2023-08-06T02:54:31;9.70;;;5.53;;
75446;SDS011;64024;55.820;37.574;2023-08-06T02:56:57;6.68;;;5.97;;
75446;SDS011;64024;55.820;37.574;2023-08-06T02:59:23;6.68;;;5.90;;
75446;SDS011;64024;55.820;37.574;2023-08-06T03:01:48;7.32;;;5.82;;
75446;SDS011;64024;55.820;37.574;2023-08-06T03:04:14;7.45;;;5.70;;
75446;SDS011;64024;55.820;37.574;2023-08-06T03:06:45;7.05;;;5.70;;
75446;SDS011;64024;55.820;37.574;2023-08-06T03:09:19;6.32;;;5.18;;
75446;SDS011;64024;55.820;37.574;2023-08-06T03:11:54;6.10;;;5.53;;
75446;SDS011;64024;55.820;37.574;2023-08-06T03:14:20;6.72;;;5.45;;
75446;SDS011;64024;55.820;37.574;2023-08-06T03:16:45;7.57;;;5.50;;
75446;SDS011;64024;55.820;37.574;2023-08-06T03:19:16;6.57;;;5.80;;
75446;SDS011;64024;55.820;37.574;2023-08-06T03:21:41;5.90;;;5.30;;
75446;SDS011;64024;55.820;37.574;2023-08-06T03:24:07;6.43;;;4.85;;
75446;SDS011;64024;55.820;37.574;2023-08-06T03:26:32;6.15;;;5.55;;
75446;SDS011;64024;55.820;37.574;2023-08-06T03:29:18;10.63;;;5.93;;
75446;SDS011;64024;55.820;37.574;2023-08-06T03:32:08;7.55;;;5.82;;
75446;SDS011;64024;55.820;37.574;2023-08-06T03:34:35;8.38;;;5.75;;
75446;SDS011;64024;55.820;37.574;2023-08-06T03:37:11;5.57;;;5.07;;
75446;SDS011;64024;55.820;37.574;2023-08-06T03:39:41;6.47;;;5.15;;
75446;SDS011;64024;55.820;37.574;2023-08-06T03:42:14;6.05;;;5.45;;
75446;SDS011;64024;55.820;37.574;2023-08-06T03:44:49;8.93;;;5.20;;
75446;SDS011;64024;55.820;37.574;2023-08-06T03:47:15;7.13;;;5.47;;
75446;SDS011;64024;55.820;37.574;2023-08-06T03:49:40;6.18;;;4.95;;
75446;SDS011;64024;55.820;37.574;2023-08-06T03:52:06;8.55;;;6.63;;
75446;SDS011;64024;55.820;37.574;2023-08-06T03:54:35;7.10;;;6.38;;
75446;SDS011;64024;55.820;37.574;2023-08-06T03:57:00;9.18;;;6.30;;
75446;SDS011;64024;55.820;37.574;2023-08-06T03:59:26;8.30;;;6.25;;
75446;SDS011;64024;55.820;37.574;2023-08-06T04:01:53;6.82;;;5.40;;
75446;SDS011;64024;55.820;37.574;2023-08-06T04:04:30;7.93;;;5.70;;
75446;SDS011;64024;55.820;37.574;2023-08-06T04:07:06;8.02;;;6.35;;
75446;SDS011;64024;55.820;37.574;2023-08-06T04:09:31;6.78;;;6.07;;
75446;SDS011;64024;55.820;37.574;2023-08-06T04:11:57;7.20;;;5.53;;
75446;SDS011;64024;55.820;37.574;2023-08-06T04:14:24;6.82;;;5.40;;
75446;SDS011;64024;55.820;37.574;2023-08-06T04:17:16;5.82;;;5.07;;
75446;SDS011;64024;55.820;37.574;2023-08-06T04:20:06;6.18;;;4.82;;
75446;SDS011;64024;55.820;37.574;2023-08-06T04:22:32;5.78;;;4.72;;
75446;SDS011;64024;55.820;37.574;2023-08-06T04:25:02;6.47;;;5.53;;
75446;SDS011;64024;55.820;37.574;2023-08-06T04:27:28;5.43;;;4.88;;
75446;SDS011;64024;55.820;37.574;2023-08-06T04:29:56;6.72;;;5.15;;
75446;SDS011;64024;55.820;37.574;2023-08-06T04:32:24;5.68;;;4.80;;
75446;SDS011;64024;55.820;37.574;2023-08-06T04:34:55;5.70;;;4.78;;
75446;SDS011;64024;55.820;37.574;2023-08-06T04:37:20;6.90;;;6.20;;
75446;SDS011;64024;55.820;37.574;2023-08-06T04:39:46;5.68;;;4.50;;
75446;SDS011;64024;55.820;37.574;2023-08-06T04:42:16;5.20;;;4.68;;
75446;SDS011;64024;55.820;37.574;2023-08-06T04:44:51;5.55;;;5.03;;
75446;SDS011;64024;55.820;37.574;2023-08-06T04:47:21;4.70;;;4.30;;
75446;SDS011;64024;55.820;37.574;2023-08-06T04:49:59;5.70;;;5.20;;
75446;SDS011;64024;55.820;37.574;2023-08-06T04:52:27;6.85;;;5.57;;
75446;SDS011;64024;55.820;37.574;2023-08-06T04:54:53;6.72;;;5.40;;
75446;SDS011;64024;55.820;37.574;2023-08-06T04:57:20;7.85;;;4.82;;
75446;SDS011;64024;55.820;37.574;2023-08-06T04:59:53;7.80;;;5.32;;
75446;SDS011;64024;55.820;37.574;2023-08-06T05:02:19;6.20;;;5.57;;
75446;SDS011;64024;55.820;37.574;2023-08-06T05:04:49;7.32;;;5.32;;
75446;SDS011;64024;55.820;37.574;2023-08-06T05:07:35;5.80;;;5.20;;
75446;SDS011;64024;55.820;37.574;2023-08-06T05:10:03;5.90;;;5.03;;
75446;SDS011;64024;55.820;37.574;2023-08-06T05:12:31;5.13;;;4.63;;
75446;SDS011;64024;55.820;37.574;2023-08-06T05:15:28;5.93;;;4.97;;
75446;SDS011;64024;55.820;37.574;2023-08-06T05:18:07;4.53;;;4.13;;
75446;SDS011;64024;55.820;37.574;2023-08-06T05:23:44;6.22;;;4.85;;
75446;SDS011;64024;55.820;37.574;2023-08-06T05:26:24;5.88;;;5.07;;
75446;SDS011;64024;55.820;37.574;2023-08-06T05:35:14;6.40;;;4.93;;
75446;SDS011;64024;55.820;37.574;2023-08-06T05:37:50;6.40;;;4.93;;
75446;SDS011;64024;55.820;37.574;2023-08-06T05:40:15;5.72;;;5.05;;
75446;SDS011;64024;55.820;37.574;2023-08-06T05:42:44;5.30;;;4.45;;
75446;SDS011;64024;55.820;37.574;2023-08-06T05:45:12;6.15;;;4.93;;
75446;SDS011;64024;55.820;37.574;2023-08-06T05:47:59;5.70;;;5.20;;
75446;SDS011;64024;55.820;37.574;2023-08-06T05:50:44;5.88;;;5.25;;
75446;SDS011;64024;55.820;37.574;2023-08-06T05:53:37;6.90;;;4.90;;
75446;SDS011;64024;55.820;37.574;2023-08-06T05:59:16;5.10;;;4.60;;
75446;SDS011;64024;55.820;37.574;2023-08-06T06:01:52;7.07;;;5.32;;
75446;SDS011;64024;55.820;37.574;2023-08-06T06:04:24;6.82;;;5.60;;
75446;SDS011;64024;55.820;37.574;2023-08-06T06:07:02;5.60;;;4.68;;
75446;SDS011;64024;55.820;37.574;2023-08-06T06:09:39;6.07;;;5.55;;
75446;SDS011;64024;55.820;37.574;2023-08-06T06:12:05;5.55;;;5.05;;
75446;SDS011;64024;55.820;37.574;2023-08-06T06:14:31;5.07;;;4.68;;
75446;SDS011;64024;55.820;37.574;2023-08-06T06:16:59;4.88;;;4.43;;
75446;SDS011;64024;55.820;37.574;2023-08-06T06:19:47;5.20;;;4.53;;
75446;SDS011;64024;55.820;37.574;2023-08-06T06:22:35;5.95;;;5.03;;
75446;SDS011;64024;55.820;37.574;2023-08-06T06:25:18;4.75;;;4.25;;
75446;SDS011;64024;55.820;37.574;2023-08-06T06:27:49;5.85;;;4.50;;
75446;SDS011;64024;55.820;37.574;2023-08-06T06:30:45;5.50;;;4.47;;
75446;SDS011;64024;55.820;37.574;2023-08-06T06:33:11;5.03;;;4.53;;
75446;SDS011;64024;55.820;37.574;2023-08-06T06:35:36;4.57;;;4.18;;
75446;SDS011;64024;55.820;37.574;2023-08-06T06:38:02;4.82;;;4.18;;
75446;SDS011;64024;55.820;37.574;2023-08-06T06:40:30;4.57;;;4.10;;
75446;SDS011;64024;55.820;37.574;2023-08-06T06:42:58;4.68;;;4.05;;
75446;SDS011;64024;55.820;37.574;2023-08-06T06:45:24;4.28;;;3.88;;
75446;SDS011;64024;55.820;37.574;2023-08-06T06:47:52;4.78;;;4.30;;
75446;SDS011;64024;55.820;37.574;2023-08-06T06:50:20;4.90;;;4.00;;
75446;SDS011;64024;55.820;37.574;2023-08-06T06:52:54;5.13;;;4.72;;
75446;SDS011;64024;55.820;37.574;2023-08-06T06:56:06;4.25;;;3.85;;
75446;SDS011;64024;55.820;37.574;2023-08-06T06:58:34;5.13;;;4.00;;
75446;SDS011;64024;55.820;37.574;2023-08-06T07:01:25;4.55;;;4.05;;
75446;SDS011;64024;55.820;37.574;2023-08-06T07:03:51;4.80;;;4.40;;
75446;SDS011;64024;55.820;37.574;2023-08-06T07:06:17;5.45;;;4.13;;
75446;SDS011;64024;55.820;37.574;2023-08-06T07:08:53;5.38;;;4.63;;
75446;SDS011;64024;55.820;37.574;2023-08-06T07:11:28;5.82;;;5.03;;
75446;SDS011;64024;55.820;37.574;2023-08-06T07:14:07;5.55;;;4.53;;
75446;SDS011;64024;55.820;37.574;2023-08-06T07:16:33;5.38;;;4.75;;
75446;SDS011;64024;55.820;37.574;2023-08-06T07:19:22;6.20;;;4.63;;
75446;SDS011;64024;55.820;37.574;2023-08-06T07:21:48;6.38;;;4.80;;
75446;SDS011;64024;55.820;37.574;2023-08-06T07:24:14;5.70;;;5.10;;
75446;SDS011;64024;55.820;37.574;2023-08-06T07:26:39;6.20;;;5.30;;
75446;SDS011;64024;55.820;37.574;2023-08-06T07:29:05;6.20;;;5.18;;
75446;SDS011;64024;55.820;37.574;2023-08-06T07:31:30;5.40;;;4.88;;
75446;SDS011;64024;55.820;37.574;2023-08-06T07:33:56;5.85;;;4.72;;
75446;SDS011;64024;55.820;37.574;2023-08-06T07:36:21;6.55;;;5.88;;
75446;SDS011;64024;55.820;37.574;2023-08-06T07:38:50;10.02;;;5.20;;
75446;SDS011;64024;55.820;37.574;2023-08-06T07:41:31;6.18;;;5.07;;
75446;SDS011;64024;55.820;37.574;2023-08-06T07:43:57;5.80;;;5.22;;
75446;SDS011;64024;55.820;37.574;2023-08-06T07:46:22;6.63;;;5.00;;
75446;SDS011;64024;55.820;37.574;2023-08-06T07:48:48;5.53;;;4.47;;
75446;SDS011;64024;55.820;37.574;2023-08-06T07:51:14;5.82;;;5.22;;
75446;SDS011;64024;55.820;37.574;2023-08-06T07:53:39;6.13;;;4.40;;
75446;SDS011;64024;55.820;37.574;2023-08-06T07:56:05;6.20;;;5.60;;
75446;SDS011;64024;55.820;37.574;2023-08-06T07:58:31;5.38;;;4.88;;
75446;SDS011;64024;55.820;37.574;2023-08-06T08:00:56;7.75;;;5.57;;
75446;SDS011;64024;55.820;37.574;2023-08-06T08:03:22;6.60;;;5.40;;
75446;SDS011;64024;55.820;37.574;2023-08-06T08:05:48;6.10;;;5.22;;
75446;SDS011;64024;55.820;37.574;2023-08-06T08:08:13;7.25;;;5.97;;
75446;SDS011;64024;55.820;37.574;2023-08-06T08:10:39;6.40;;;5.72;;
75446;SDS011;64024;55.820;37.574;2023-08-06T08:13:05;7.05;;;4.90;;
75446;SDS011;64024;55.820;37.574;2023-08-06T08:15:31;7.22;;;5.97;;
75446;SDS011;64024;55.820;37.574;2023-08-06T08:17:58;8.10;;;5.95;;
75446;SDS011;64024;55.820;37.574;2023-08-06T08:20:24;7.05;;;6.35;;
75446;SDS011;64024;55.820;37.574;2023-08-06T08:22:49;6.35;;;5.40;;
75446;SDS011;64024;55.820;37.574;2023-08-06T08:25:15;8.45;;;6.22;;
75446;SDS011;64024;55.820;37.574;2023-08-06T08:27:41;6.72;;;5.65;;
75446;SDS011;64024;55.820;37.574;2023-08-06T08:30:07;7.35;;;5.43;;
75446;SDS011;64024;55.820;37.574;2023-08-06T08:32:33;6.10;;;5.50;;
75446;SDS011;64024;55.820;37.574;2023-08-06T08:34:58;6.85;;;5.70;;
75446;SDS011;64024;55.820;37.574;2023-08-06T08:37:24;8.07;;;5.35;;
75446;SDS011;64024;55.820;37.574;2023-08-06T08:39:50;7.72;;;5.45;;
75446;SDS011;64024;55.820;37.574;2023-08-06T08:42:15;8.75;;;6.00;;
75446;SDS011;64024;55.820;37.574;2023-08-06T08:44:44;10.90;;;6.07;;
75446;SDS011;64024;55.820;37.574;2023-08-06T08:47:10;7.70;;;5.85;;
75446;SDS011;64024;55.820;37.574;2023-08-06T08:49:37;6.15;;;5.63;;
75446;SDS011;64024;55.820;37.574;2023-08-06T08:52:04;5.65;;;5.15;;
75446;SDS011;64024;55.820;37.574;2023-08-06T08:54:35;6.28;;;5.10;;
75446;SDS011;64024;55.820;37.574;2023-08-06T08:57:03;8.93;;;5.60;;
75446;SDS011;64024;55.820;37.574;2023-08-06T08:59:29;5.07;;;4.55;;
75446;SDS011;64024;55.820;37.574;2023-08-06T09:01:55;4.95;;;4.32;;
75446;SDS011;64024;55.820;37.574;2023-08-06T09:04:21;5.72;;;4.82;;
75446;SDS011;64024;55.820;37.574;2023-08-06T09:06:50;5.40;;;4.90;;
75446;SDS011;64024;55.820;37.574;2023-08-06T09:09:20;5.05;;;4.47;;
75446;SDS011;64024;55.820;37.574;2023-08-06T09:11:53;5.15;;;4.65;;
75446;SDS011;64024;55.820;37.574;2023-08-06T09:14:26;6.47;;;4.70;;
75446;SDS011;64024;55.820;37.574;2023-08-06T09:16:51;5.65;;;5.05;;
75446;SDS011;64024;55.820;37.574;2023-08-06T09:19:17;5.82;;;5.32;;
75446;SDS011;64024;55.820;37.574;2023-08-06T09:21:43;6.40;;;5.80;;
75446;SDS011;64024;55.820;37.574;2023-08-06T09:24:09;6.07;;;5.47;;
75446;SDS011;64024;55.820;37.574;2023-08-06T09:26:37;6.90;;;6.00;;
75446;SDS011;64024;55.820;37.574;2023-08-06T09:29:06;6.07;;;5.50;;
75446;SDS011;64024;55.820;37.574;2023-08-06T09:36:41;6.90;;;6.07;;
75446;SDS011;64024;55.820;37.574;2023-08-06T09:39:41;6.13;;;5.55;;
75446;SDS011;64024;55.820;37.574;2023-08-06T09:42:00;7.13;;;6.43;;
75446;SDS011;64024;55.820;37.574;2023-08-06T09:44:27;6.85;;;5.57;;
75446;SDS011;64024;55.820;37.574;2023-08-06T09:46:59;7.47;;;5.82;;
75446;SDS011;64024;55.820;37.574;2023-08-06T09:51:58;7.10;;;6.40;;
75446;SDS011;64024;55.820;37.574;2023-08-06T09:54:25;6.40;;;5.80;;
75446;SDS011;64024;55.820;37.574;2023-08-06T09:56:55;5.85;;;5.35;;
75446;SDS011;64024;55.820;37.574;2023-08-06T09:59:24;7.85;;;5.68;;
75446;SDS011;64024;55.820;37.574;2023-08-06T10:01:50;5.95;;;5.45;;
75446;SDS011;64024;55.820;37.574;2023-08-06T10:04:16;5.85;;;5.35;;
75446;SDS011;64024;55.820;37.574;2023-08-06T10:06:43;6.65;;;5.88;;
75446;SDS011;64024;55.820;37.574;2023-08-06T10:09:11;6.53;;;5.93;;
75446;SDS011;64024;55.820;37.574;2023-08-06T10:11:37;6.22;;;5.63;;
75446;SDS011;64024;55.820;37.574;2023-08-06T10:14:12;5.88;;;5.38;;
75446;SDS011;64024;55.820;37.574;2023-08-06T10:19:09;5.70;;;4.70;;
75446;SDS011;64024;55.820;37.574;2023-08-06T10:21:38;6.72;;;6.13;;
75446;SDS011;64024;55.820;37.574;2023-08-06T10:24:03;6.47;;;5.90;;
75446;SDS011;64024;55.820;37.574;2023-08-06T10:26:34;6.53;;;5.85;;
75446;SDS011;64024;55.820;37.574;2023-08-06T10:29:00;6.05;;;5.45;;
75446;SDS011;64024;55.820;37.574;2023-08-06T10:31:59;8.48;;;6.28;;
75446;SDS011;64024;55.820;37.574;2023-08-06T10:34:48;5.85;;;5.35;;
75446;SDS011;64024;55.820;37.574;2023-08-06T10:37:35;5.57;;;5.07;;
75446;SDS011;64024;55.820;37.574;2023-08-06T10:40:01;5.82;;;5.18;;
75446;SDS011;64024;55.820;37.574;2023-08-06T10:42:28;4.82;;;4.40;;
75446;SDS011;64024;55.820;37.574;2023-08-06T10:47:40;8.52;;;6.00;;
75446;SDS011;64024;55.820;37.574;2023-08-06T10:50:11;7.50;;;5.80;;
75446;SDS011;64024;55.820;37.574;2023-08-06T10:52:47;6.78;;;5.53;;
75446;SDS011;64024;55.820;37.574;2023-08-06T10:55:13;7.00;;;5.68;;
75446;SDS011;64024;55.820;37.574;2023-08-06T10:57:39;6.43;;;5.78;;
75446;SDS011;64024;55.820;37.574;2023-08-06T11:00:05;6.07;;;5.57;;
75446;SDS011;64024;55.820;37.574;2023-08-06T11:02:33;6.47;;;5.88;;
75446;SDS011;64024;55.820;37.574;2023-08-06T11:05:08;6.43;;;5.80;;
75446;SDS011;64024;55.820;37.574;2023-08-06T11:07:35;6.85;;;6.18;;
75446;SDS011;64024;55.820;37.574;2023-08-06T11:10:04;6.53;;;5.88;;
75446;SDS011;64024;55.820;37.574;2023-08-06T11:12:31;8.07;;;5.80;;
75446;SDS011;64024;55.820;37.574;2023-08-06T11:14:57;6.95;;;5.85;;
75446;SDS011;64024;55.820;37.574;2023-08-06T11:17:23;7.35;;;6.25;;
75446;SDS011;64024;55.820;37.574;2023-08-06T11:19:49;6.97;;;6.28;;
75446;SDS011;64024;55.820;37.574;2023-08-06T11:22:16;6.90;;;6.20;;
75446;SDS011;64024;55.820;37.574;2023-08-06T11:27:14;6.40;;;5.80;;
75446;SDS011;64024;55.820;37.574;2023-08-06T11:29:40;7.55;;;6.30;;
75446;SDS011;64024;55.820;37.574;2023-08-06T11:32:09;6.72;;;5.80;;
75446;SDS011;64024;55.820;37.574;2023-08-06T11:34:36;7.22;;;6.03;;
75446;SDS011;64024;55.820;37.574;2023-08-06T11:37:05;6.65;;;6.05;;
75446;SDS011;64024;55.820;37.574;2023-08-06T11:39:32;7.13;;;6.35;;
75446;SDS011;64024;55.820;37.574;2023-08-06T11:41:59;7.10;;;6.25;;
75446;SDS011;64024;55.820;37.574;2023-08-06T11:44:29;6.72;;;5.80;;
75446;SDS011;64024;55.820;37.574;2023-08-06T11:46:57;6.05;;;5.47;;
75446;SDS011;64024;55.820;37.574;2023-08-06T11:49:42;9.43;;;6.03;;
75446;SDS011;64024;55.820;37.574;2023-08-06T11:52:21;6.30;;;5.70;;
75446;SDS011;64024;55.820;37.574;2023-08-06T11:55:04;6.78;;;6.18;;
75446;SDS011;64024;55.820;37.574;2023-08-06T11:57:37;6.35;;;5.75;;
75446;SDS011;64024;55.820;37.574;2023-08-06T12:00:08;6.22;;;5.63;;
75446;SDS011;64024;55.820;37.574;2023-08-06T12:02:36;7.50;;;6.22;;
75446;SDS011;64024;55.820;37.574;2023-08-06T12:05:04;6.35;;;5.75;;
75446;SDS011;64024;55.820;37.574;2023-08-06T12:07:40;8.13;;;6.70;;
75446;SDS011;64024;55.820;37.574;2023-08-06T12:10:07;6.35;;;5.72;;
75446;SDS011;64024;55.820;37.574;2023-08-06T12:12:33;6.45;;;5.82;;
75446;SDS011;64024;55.820;37.574;2023-08-06T12:14:59;6.70;;;5.97;;
75446;SDS011;64024;55.820;37.574;2023-08-06T12:17:25;6.95;;;6.25;;
75446;SDS011;64024;55.820;37.574;2023-08-06T12:19:51;6.47;;;5.88;;
75446;SDS011;64024;55.820;37.574;2023-08-06T12:22:17;6.63;;;5.90;;
75446;SDS011;64024;55.820;37.574;2023-08-06T12:24:43;7.30;;;6.07;;
75446;SDS011;64024;55.820;37.574;2023-08-06T12:27:09;7.15;;;5.50;;
75446;SDS011;64024;55.820;37.574;2023-08-06T12:29:42;6.90;;;6.30;;
75446;SDS011;64024;55.820;37.574;2023-08-06T12:32:09;6.65;;;5.80;;
75446;SDS011;64024;55.820;37.574;2023-08-06T12:34:40;6.75;;;6.15;;
75446;SDS011;64024;55.820;37.574;2023-08-06T12:37:07;6.78;;;6.18;;
75446;SDS011;64024;55.820;37.574;2023-08-06T12:39:34;8.75;;;6.78;;
75446;SDS011;64024;55.820;37.574;2023-08-06T12:42:01;6.95;;;6.35;;
75446;SDS011;64024;55.820;37.574;2023-08-06T12:44:27;7.03;;;6.32;;
75446;SDS011;64024;55.820;37.574;2023-08-06T12:46:53;7.20;;;6.50;;
75446;SDS011;64024;55.820;37.574;2023-08-06T12:49:19;8.10;;;7.40;;
75446;SDS011;64024;55.820;37.574;2023-08-06T12:51:48;10.68;;;7.03;;
75446;SDS011;64024;55.820;37.574;2023-08-06T12:54:15;22.70;;;6.85;;
75446;SDS011;64024;55.820;37.574;2023-08-06T12:56:41;16.60;;;8.27;;
75446;SDS011;64024;55.820;37.574;2023-08-06T12:59:07;11.30;;;7.32;;
75446;SDS011;64024;55.820;37.574;2023-08-06T13:01:32;11.30;;;7.63;;
75446;SDS011;64024;55.820;37.574;2023-08-06T13:03:59;19.95;;;7.82;;
75446;SDS011;64024;55.820;37.574;2023-08-06T13:08:50;16.50;;;6.50;;
75446;SDS011;64024;55.820;37.574;2023-08-06T13:11:16;31.67;;;9.27;;
75446;SDS011;64024;55.820;37.574;2023-08-06T13:13:42;17.83;;;7.75;;
75446;SDS011;64024;55.820;37.574;2023-08-06T13:16:07;20.17;;;8.20;;
75446;SDS011;64024;55.820;37.574;2023-08-06T13:18:33;8.10;;;6.65;;
75446;SDS011;64024;55.820;37.574;2023-08-06T13:20:58;18.17;;;7.75;;
75446;SDS011;64024;55.820;37.574;2023-08-06T13:23:24;14.80;;;7.45;;
75446;SDS011;64024;55.820;37.574;2023-08-06T13:25:49;16.27;;;6.93;;
75446;SDS011;64024;55.820;37.574;2023-08-06T13:28:15;9.25;;;6.45;;
75446;SDS011;64024;55.820;37.574;2023-08-06T13:30:41;8.30;;;6.60;;
75446;SDS011;64024;55.820;37.574;2023-08-06T13:33:10;16.02;;;7.45;;
75446;SDS011;64024;55.820;37.574;2023-08-06T13:35:37;13.38;;;6.43;;
75446;SDS011;64024;55.820;37.574;2023-08-06T13:38:03;13.05;;;7.05;;
75446;SDS011;64024;55.820;37.574;2023-08-06T13:40:29;17.48;;;6.60;;
75446;SDS011;64024;55.820;37.574;2023-08-06T13:42:57;22.85;;;9.20;;
75446;SDS011;64024;55.820;37.574;2023-08-06T13:45:22;24.77;;;8.45;;
75446;SDS011;64024;55.820;37.574;2023-08-06T13:47:48;19.33;;;7.47;;
75446;SDS011;64024;55.820;37.574;2023-08-06T13:50:13;21.15;;;7.18;;
75446;SDS011;64024;55.820;37.574;2023-08-06T13:52:39;11.57;;;7.10;;
75446;SDS011;64024;55.820;37.574;2023-08-06T13:55:05;9.52;;;6.25;;
75446;SDS011;64024;55.820;37.574;2023-08-06T13:57:31;14.18;;;7.47;;
75446;SDS011;64024;55.820;37.574;2023-08-06T13:59:57;17.63;;;8.05;;
75446;SDS011;64024;55.820;37.574;2023-08-06T14:02:23;21.25;;;7.85;;
75446;SDS011;64024;55.820;37.574;2023-08-06T14:04:48;16.35;;;8.93;;
75446;SDS011;64024;55.820;37.574;2023-08-06T14:07:14;10.07;;;6.10;;
75446;SDS011;64024;55.820;37.574;2023-08-06T14:09:40;14.57;;;7.82;;
75446;SDS011;64024;55.820;37.574;2023-08-06T14:12:07;11.65;;;7.18;;
75446;SDS011;64024;55.820;37.574;2023-08-06T14:14:33;14.85;;;7.18;;
75446;SDS011;64024;55.820;37.574;2023-08-06T14:16:58;11.48;;;7.03;;
75446;SDS011;64024;55.820;37.574;2023-08-06T14:19:24;16.45;;;6.78;;
75446;SDS011;64024;55.820;37.574;2023-08-06T14:21:50;36.72;;;11.68;;
75446;SDS011;64024;55.820;37.574;2023-08-06T14:24:15;26.20;;;9.93;;
75446;SDS011;64024;55.820;37.574;2023-08-06T14:26:41;30.55;;;10.52;;
75446;SDS011;64024;55.820;37.574;2023-08-06T14:29:07;28.27;;;10.73;;
75446;SDS011;64024;55.820;37.574;2023-08-06T14:31:32;24.77;;;11.07;;
75446;SDS011;64024;55.820;37.574;2023-08-06T14:33:58;23.42;;;9.57;;
75446;SDS011;64024;55.820;37.574;2023-08-06T14:36:24;20.33;;;8.52;;
75446;SDS011;64024;55.820;37.574;2023-08-06T14:38:49;20.67;;;6.88;;
75446;SDS011;64024;55.820;37.574;2023-08-06T14:41:15;20.38;;;8.18;;
75446;SDS011;64024;55.820;37.574;2023-08-06T14:43:40;19.98;;;7.82;;
75446;SDS011;64024;55.820;37.574;2023-08-06T14:46:06;15.00;;;7.57;;
75446;SDS011;64024;55.820;37.574;2023-08-06T14:48:31;13.88;;;8.20;;
75446;SDS011;64024;55.820;37.574;2023-08-06T14:50:58;12.35;;;7.20;;
75446;SDS011;64024;55.820;37.574;2023-08-06T14:53:23;11.68;;;7.13;;
75446;SDS011;64024;55.820;37.574;2023-08-06T14:55:49;11.77;;;6.78;;
75446;SDS011;64024;55.820;37.574;2023-08-06T14:58:15;12.80;;;6.35;;
75446;SDS011;64024;55.820;37.574;2023-08-06T15:00:41;12.73;;;6.47;;
75446;SDS011;64024;55.820;37.574;2023-08-06T15:03:06;12.32;;;7.13;;
75446;SDS011;64024;55.820;37.574;2023-08-06T15:05:32;13.02;;;6.70;;
75446;SDS011;64024;55.820;37.574;2023-08-06T15:07:58;14.25;;;6.75;;
75446;SDS011;64024;55.820;37.574;2023-08-06T15:10:24;10.23;;;6.30;;
75446;SDS011;64024;55.820;37.574;2023-08-06T15:12:50;11.77;;;6.88;;
75446;SDS011;64024;55.820;37.574;2023-08-06T15:15:15;8.98;;;6.00;;
75446;SDS011;64024;55.820;37.574;2023-08-06T15:17:41;8.05;;;6.97;;
75446;SDS011;64024;55.820;37.574;2023-08-06T15:20:07;7.88;;;6.63;;
75446;SDS011;64024;55.820;37.574;2023-08-06T15:22:33;9.82;;;6.38;;
75446;SDS011;64024;55.820;37.574;2023-08-06T15:25:02;8.13;;;6.18;;